sensor_id;sensor_type;location;lat;lon;timestamp;temperature;humidity
52209;DHT22;38507;53.132;6.394;2023-11-19T00:00:29;11.40;99.90
52209;DHT22;38507;53.132;6.394;2023-11-19T00:02:55;11.40;99.90
52209;DHT22;38507;53.132;6.394;2023-11-19T00:05:20;12.00;99.90
52209;DHT22;38507;53.132;6.394;2023-11-19T00:07:46;11.60;99.90
52209;DHT22;38507;53.132;6.394;2023-11-19T00:10:15;11.70;99.90
52209;DHT22;38507;53.132;6.394;2023-11-19T00:12:45;11.60;99.90
52209;DHT22;38507;53.132;6.394;2023-11-19T00:15:17;11.70;99.90
52209;DHT22;38507;53.132;6.394;2023-11-19T00:17:47;11.70;99.90
52209;DHT22;38507;53.132;6.394;2023-11-19T00:20:15;11.80;99.90
52209;DHT22;38507;53.132;6.394;2023-11-19T00:22:41;11.70;99.90
52209;DHT22;38507;53.132;6.394;2023-11-19T00:25:08;11.80;99.90
52209;DHT22;38507;53.132;6.394;2023-11-19T00:27:35;11.70;99.90
52209;DHT22;38507;53.132;6.394;2023-11-19T00:30:01;12.10;99.90
52209;DHT22;38507;53.132;6.394;2023-11-19T00:32:26;11.80;99.90
52209;DHT22;38507;53.132;6.394;2023-11-19T00:34:52;11.90;99.90
52209;DHT22;38507;53.132;6.394;2023-11-19T00:37:17;12.00;99.90
52209;DHT22;38507;53.132;6.394;2023-11-19T00:39:43;11.80;99.90
52209;DHT22;38507;53.132;6.394;2023-11-19T00:42:09;12.00;99.90
52209;DHT22;38507;53.132;6.394;2023-11-19T00:44:36;12.00;99.90
52209;DHT22;38507;53.132;6.394;2023-11-19T00:47:01;12.10;99.90
52209;DHT22;38507;53.132;6.394;2023-11-19T00:49:27;12.10;99.90
52209;DHT22;38507;53.132;6.394;2023-11-19T00:51:53;12.10;99.90
52209;DHT22;38507;53.132;6.394;2023-11-19T00:54:19;12.10;99.90
52209;DHT22;38507;53.132;6.394;2023-11-19T00:56:44;12.00;99.90
52209;DHT22;38507;53.132;6.394;2023-11-19T00:59:10;12.10;99.90
52209;DHT22;38507;53.132;6.394;2023-11-19T01:01:36;12.20;99.90
52209;DHT22;38507;53.132;6.394;2023-11-19T01:04:02;12.10;99.90
52209;DHT22;38507;53.132;6.394;2023-11-19T01:06:31;12.30;99.90
52209;DHT22;38507;53.132;6.394;2023-11-19T01:08:57;12.10;99.90
52209;DHT22;38507;53.132;6.394;2023-11-19T01:11:24;12.20;99.90
52209;DHT22;38507;53.132;6.394;2023-11-19T01:13:50;12.10;99.90
52209;DHT22;38507;53.132;6.394;2023-11-19T01:16:16;12.00;99.90
52209;DHT22;38507;53.132;6.394;2023-11-19T01:18:42;12.40;99.90
52209;DHT22;38507;53.132;6.394;2023-11-19T01:21:07;12.20;99.90
52209;DHT22;38507;53.132;6.394;2023-11-19T01:23:34;12.10;99.90
52209;DHT22;38507;53.132;6.394;2023-11-19T01:26:00;12.50;99.90
52209;DHT22;38507;53.132;6.394;2023-11-19T01:28:25;12.10;99.90
52209;DHT22;38507;53.132;6.394;2023-11-19T01:30:51;12.30;99.90
52209;DHT22;38507;53.132;6.394;2023-11-19T01:33:17;12.20;99.90
52209;DHT22;38507;53.132;6.394;2023-11-19T01:35:43;12.40;99.90
52209;DHT22;38507;53.132;6.394;2023-11-19T01:38:08;12.10;99.90
52209;DHT22;38507;53.132;6.394;2023-11-19T01:40:35;12.10;99.90
52209;DHT22;38507;53.132;6.394;2023-11-19T01:43:03;12.20;99.90
52209;DHT22;38507;53.132;6.394;2023-11-19T01:45:30;12.10;99.90
52209;DHT22;38507;53.132;6.394;2023-11-19T01:48:02;12.00;99.90
52209;DHT22;38507;53.132;6.394;2023-11-19T01:50:30;12.20;99.90
52209;DHT22;38507;53.132;6.394;2023-11-19T01:52:57;12.10;99.90
52209;DHT22;38507;53.132;6.394;2023-11-19T01:55:24;12.20;99.90
52209;DHT22;38507;53.132;6.394;2023-11-19T01:57:52;12.10;99.90
52209;DHT22;38507;53.132;6.394;2023-11-19T02:00:19;12.00;99.90
52209;DHT22;38507;53.132;6.394;2023-11-19T02:02:46;12.00;99.90
52209;DHT22;38507;53.132;6.394;2023-11-19T02:05:13;12.10;99.90
52209;DHT22;38507;53.132;6.394;2023-11-19T02:07:39;12.10;99.90
52209;DHT22;38507;53.132;6.394;2023-11-19T02:10:05;12.00;99.90
52209;DHT22;38507;53.132;6.394;2023-11-19T02:12:34;12.00;99.90
52209;DHT22;38507;53.132;6.394;2023-11-19T02:15:02;12.00;99.90
52209;DHT22;38507;53.132;6.394;2023-11-19T02:17:31;12.00;99.90
52209;DHT22;38507;53.132;6.394;2023-11-19T02:19:57;12.00;99.90
52209;DHT22;38507;53.132;6.394;2023-11-19T02:22:24;12.00;99.90
52209;DHT22;38507;53.132;6.394;2023-11-19T02:24:59;11.90;99.90
52209;DHT22;38507;53.132;6.394;2023-11-19T02:27:55;12.00;99.90
52209;DHT22;38507;53.132;6.394;2023-11-19T02:30:22;12.10;99.90
52209;DHT22;38507;53.132;6.394;2023-11-19T02:32:52;12.10;99.90
52209;DHT22;38507;53.132;6.394;2023-11-19T02:35:19;11.90;99.90
52209;DHT22;38507;53.132;6.394;2023-11-19T02:37:47;11.90;99.90
52209;DHT22;38507;53.132;6.394;2023-11-19T02:40:13;12.00;99.90
52209;DHT22;38507;53.132;6.394;2023-11-19T02:42:39;12.00;99.90
52209;DHT22;38507;53.132;6.394;2023-11-19T02:45:04;11.90;99.90
52209;DHT22;38507;53.132;6.394;2023-11-19T02:47:32;11.90;99.90
52209;DHT22;38507;53.132;6.394;2023-11-19T02:49:57;12.20;99.90
52209;DHT22;38507;53.132;6.394;2023-11-19T02:52:23;11.80;99.90
52209;DHT22;38507;53.132;6.394;2023-11-19T02:54:50;11.90;99.90
52209;DHT22;38507;53.132;6.394;2023-11-19T02:57:16;11.90;99.90
52209;DHT22;38507;53.132;6.394;2023-11-19T02:59:44;11.90;99.90
52209;DHT22;38507;53.132;6.394;2023-11-19T03:02:10;11.90;99.90
52209;DHT22;38507;53.132;6.394;2023-11-19T03:04:41;12.00;99.90
52209;DHT22;38507;53.132;6.394;2023-11-19T03:07:09;11.70;99.90
52209;DHT22;38507;53.132;6.394;2023-11-19T03:09:34;11.80;99.90
52209;DHT22;38507;53.132;6.394;2023-11-19T03:12:01;11.70;99.90
52209;DHT22;38507;53.132;6.394;2023-11-19T03:14:27;11.90;99.90
52209;DHT22;38507;53.132;6.394;2023-11-19T03:16:53;11.70;99.90
52209;DHT22;38507;53.132;6.394;2023-11-19T03:19:19;11.80;99.90
52209;DHT22;38507;53.132;6.394;2023-11-19T03:21:44;11.80;99.90
52209;DHT22;38507;53.132;6.394;2023-11-19T03:24:12;11.80;99.90
52209;DHT22;38507;53.132;6.394;2023-11-19T03:26:38;11.70;99.90
52209;DHT22;38507;53.132;6.394;2023-11-19T03:29:04;11.70;99.90
52209;DHT22;38507;53.132;6.394;2023-11-19T03:31:30;12.10;99.90
52209;DHT22;38507;53.132;6.394;2023-11-19T03:33:55;12.00;99.90
52209;DHT22;38507;53.132;6.394;2023-11-19T03:36:21;11.70;99.90
52209;DHT22;38507;53.132;6.394;2023-11-19T03:38:47;11.70;99.90
52209;DHT22;38507;53.132;6.394;2023-11-19T03:41:14;11.70;99.90
52209;DHT22;38507;53.132;6.394;2023-11-19T03:43:40;11.80;99.90
52209;DHT22;38507;53.132;6.394;2023-11-19T03:46:19;11.70;99.90
52209;DHT22;38507;53.132;6.394;2023-11-19T03:48:46;11.70;99.90
52209;DHT22;38507;53.132;6.394;2023-11-19T03:51:12;11.70;99.90
52209;DHT22;38507;53.132;6.394;2023-11-19T03:53:42;11.80;99.90
52209;DHT22;38507;53.132;6.394;2023-11-19T03:56:09;11.70;99.90
52209;DHT22;38507;53.132;6.394;2023-11-19T03:58:35;12.00;99.90
52209;DHT22;38507;53.132;6.394;2023-11-19T04:01:01;11.80;99.90
52209;DHT22;38507;53.132;6.394;2023-11-19T04:03:28;11.70;99.90
52209;DHT22;38507;53.132;6.394;2023-11-19T04:05:53;11.70;99.90
52209;DHT22;38507;53.132;6.394;2023-11-19T04:08:19;11.70;99.90
52209;DHT22;38507;53.132;6.394;2023-11-19T04:10:45;11.70;99.90
52209;DHT22;38507;53.132;6.394;2023-11-19T04:13:10;11.60;99.90
52209;DHT22;38507;53.132;6.394;2023-11-19T04:15:36;11.60;99.90
52209;DHT22;38507;53.132;6.394;2023-11-19T04:18:02;11.60;99.90
52209;DHT22;38507;53.132;6.394;2023-11-19T04:20:27;11.60;99.90
52209;DHT22;38507;53.132;6.394;2023-11-19T04:22:53;11.70;99.90
52209;DHT22;38507;53.132;6.394;2023-11-19T04:25:19;11.60;99.90
52209;DHT22;38507;53.132;6.394;2023-11-19T04:27:45;11.80;99.90
52209;DHT22;38507;53.132;6.394;2023-11-19T04:30:11;11.80;99.90
52209;DHT22;38507;53.132;6.394;2023-11-19T04:32:37;11.70;99.90
52209;DHT22;38507;53.132;6.394;2023-11-19T04:35:03;11.60;99.90
52209;DHT22;38507;53.132;6.394;2023-11-19T04:37:29;11.70;99.90
52209;DHT22;38507;53.132;6.394;2023-11-19T04:39:54;11.70;99.90
52209;DHT22;38507;53.132;6.394;2023-11-19T04:42:22;11.60;99.90
52209;DHT22;38507;53.132;6.394;2023-11-19T04:44:48;11.80;99.90
52209;DHT22;38507;53.132;6.394;2023-11-19T04:47:13;11.70;99.90
52209;DHT22;38507;53.132;6.394;2023-11-19T04:49:42;11.60;99.90
52209;DHT22;38507;53.132;6.394;2023-11-19T04:52:08;11.90;99.90
52209;DHT22;38507;53.132;6.394;2023-11-19T04:54:34;11.60;99.90
52209;DHT22;38507;53.132;6.394;2023-11-19T04:56:59;11.60;99.90
52209;DHT22;38507;53.132;6.394;2023-11-19T04:59:25;11.60;99.90
52209;DHT22;38507;53.132;6.394;2023-11-19T05:01:52;11.80;99.90
52209;DHT22;38507;53.132;6.394;2023-11-19T05:04:18;11.60;99.90
52209;DHT22;38507;53.132;6.394;2023-11-19T05:06:46;11.70;99.90
52209;DHT22;38507;53.132;6.394;2023-11-19T05:09:12;11.70;99.90
52209;DHT22;38507;53.132;6.394;2023-11-19T05:11:39;11.70;99.90
52209;DHT22;38507;53.132;6.394;2023-11-19T05:14:05;11.70;99.90
52209;DHT22;38507;53.132;6.394;2023-11-19T05:16:31;11.60;99.90
52209;DHT22;38507;53.132;6.394;2023-11-19T05:18:57;11.70;99.90
52209;DHT22;38507;53.132;6.394;2023-11-19T05:21:23;11.70;99.90
52209;DHT22;38507;53.132;6.394;2023-11-19T05:23:49;11.70;99.90
52209;DHT22;38507;53.132;6.394;2023-11-19T05:26:19;11.70;99.90
52209;DHT22;38507;53.132;6.394;2023-11-19T05:28:45;11.70;99.90
52209;DHT22;38507;53.132;6.394;2023-11-19T05:31:10;11.70;99.90
52209;DHT22;38507;53.132;6.394;2023-11-19T05:33:36;11.60;99.90
52209;DHT22;38507;53.132;6.394;2023-11-19T05:36:02;11.70;99.90
52209;DHT22;38507;53.132;6.394;2023-11-19T05:38:29;11.70;99.90
52209;DHT22;38507;53.132;6.394;2023-11-19T05:40:55;11.80;99.90
52209;DHT22;38507;53.132;6.394;2023-11-19T05:43:21;11.70;99.90
52209;DHT22;38507;53.132;6.394;2023-11-19T05:45:47;11.60;99.90
52209;DHT22;38507;53.132;6.394;2023-11-19T05:48:12;11.70;99.90
52209;DHT22;38507;53.132;6.394;2023-11-19T05:50:38;11.70;99.90
52209;DHT22;38507;53.132;6.394;2023-11-19T05:53:04;11.60;99.90
52209;DHT22;38507;53.132;6.394;2023-11-19T05:55:38;11.70;99.90
52209;DHT22;38507;53.132;6.394;2023-11-19T05:58:11;11.60;99.90
52209;DHT22;38507;53.132;6.394;2023-11-19T06:00:40;11.60;99.90
52209;DHT22;38507;53.132;6.394;2023-11-19T06:03:07;11.60;99.90
52209;DHT22;38507;53.132;6.394;2023-11-19T06:05:33;11.80;99.90
52209;DHT22;38507;53.132;6.394;2023-11-19T06:07:59;11.50;99.90
52209;DHT22;38507;53.132;6.394;2023-11-19T06:10:24;11.50;99.90
52209;DHT22;38507;53.132;6.394;2023-11-19T06:12:59;11.50;99.90
52209;DHT22;38507;53.132;6.394;2023-11-19T06:15:26;11.50;99.90
52209;DHT22;38507;53.132;6.394;2023-11-19T06:17:53;11.50;99.90
52209;DHT22;38507;53.132;6.394;2023-11-19T06:20:18;11.20;99.90
52209;DHT22;38507;53.132;6.394;2023-11-19T06:22:45;11.40;99.90
52209;DHT22;38507;53.132;6.394;2023-11-19T06:25:12;11.40;99.90
52209;DHT22;38507;53.132;6.394;2023-11-19T06:27:40;11.40;99.90
52209;DHT22;38507;53.132;6.394;2023-11-19T06:30:07;11.40;99.90
52209;DHT22;38507;53.132;6.394;2023-11-19T06:32:32;11.40;99.90
52209;DHT22;38507;53.132;6.394;2023-11-19T06:34:58;11.40;99.90
52209;DHT22;38507;53.132;6.394;2023-11-19T06:37:24;11.40;99.90
52209;DHT22;38507;53.132;6.394;2023-11-19T06:39:49;11.40;99.90
52209;DHT22;38507;53.132;6.394;2023-11-19T06:42:15;11.40;99.90
52209;DHT22;38507;53.132;6.394;2023-11-19T06:44:40;11.30;99.90
52209;DHT22;38507;53.132;6.394;2023-11-19T06:47:06;11.30;99.90
52209;DHT22;38507;53.132;6.394;2023-11-19T06:49:32;11.40;99.90
52209;DHT22;38507;53.132;6.394;2023-11-19T06:51:58;11.30;99.90
52209;DHT22;38507;53.132;6.394;2023-11-19T06:54:24;11.30;99.90
52209;DHT22;38507;53.132;6.394;2023-11-19T06:56:49;11.30;99.90
52209;DHT22;38507;53.132;6.394;2023-11-19T06:59:15;11.30;99.90
52209;DHT22;38507;53.132;6.394;2023-11-19T07:01:41;11.20;99.90
52209;DHT22;38507;53.132;6.394;2023-11-19T07:04:13;11.50;99.90
52209;DHT22;38507;53.132;6.394;2023-11-19T07:06:39;11.20;99.90
52209;DHT22;38507;53.132;6.394;2023-11-19T07:09:08;11.20;99.90
52209;DHT22;38507;53.132;6.394;2023-11-19T07:11:41;11.20;99.90
52209;DHT22;38507;53.132;6.394;2023-11-19T07:14:07;11.10;99.90
52209;DHT22;38507;53.132;6.394;2023-11-19T07:16:34;11.10;99.90
52209;DHT22;38507;53.132;6.394;2023-11-19T07:19:05;11.10;99.90
52209;DHT22;38507;53.132;6.394;2023-11-19T07:21:31;11.10;99.90
52209;DHT22;38507;53.132;6.394;2023-11-19T07:23:59;11.10;99.90
52209;DHT22;38507;53.132;6.394;2023-11-19T07:26:24;11.10;99.90
52209;DHT22;38507;53.132;6.394;2023-11-19T07:28:50;11.10;99.90
52209;DHT22;38507;53.132;6.394;2023-11-19T07:31:16;11.10;99.90
52209;DHT22;38507;53.132;6.394;2023-11-19T07:33:45;11.30;99.90
52209;DHT22;38507;53.132;6.394;2023-11-19T07:36:11;11.10;99.90
52209;DHT22;38507;53.132;6.394;2023-11-19T07:38:37;11.10;99.90
52209;DHT22;38507;53.132;6.394;2023-11-19T07:41:04;11.10;99.90
52209;DHT22;38507;53.132;6.394;2023-11-19T07:43:30;11.00;99.90
52209;DHT22;38507;53.132;6.394;2023-11-19T07:45:56;11.00;99.90
52209;DHT22;38507;53.132;6.394;2023-11-19T07:48:24;11.20;99.90
52209;DHT22;38507;53.132;6.394;2023-11-19T07:50:50;11.10;99.90
52209;DHT22;38507;53.132;6.394;2023-11-19T07:53:16;11.00;99.90
52209;DHT22;38507;53.132;6.394;2023-11-19T07:55:42;11.00;99.90
52209;DHT22;38507;53.132;6.394;2023-11-19T07:58:10;11.10;99.90
52209;DHT22;38507;53.132;6.394;2023-11-19T08:00:36;11.10;99.90
52209;DHT22;38507;53.132;6.394;2023-11-19T08:03:03;11.20;99.90
52209;DHT22;38507;53.132;6.394;2023-11-19T08:05:28;11.40;99.90
52209;DHT22;38507;53.132;6.394;2023-11-19T08:07:54;11.20;99.90
52209;DHT22;38507;53.132;6.394;2023-11-19T08:10:20;11.20;99.90
52209;DHT22;38507;53.132;6.394;2023-11-19T08:12:45;11.20;99.90
52209;DHT22;38507;53.132;6.394;2023-11-19T08:15:11;11.50;99.90
52209;DHT22;38507;53.132;6.394;2023-11-19T08:17:37;11.20;99.90
52209;DHT22;38507;53.132;6.394;2023-11-19T08:20:03;11.30;99.90
52209;DHT22;38507;53.132;6.394;2023-11-19T08:22:30;11.30;99.90
52209;DHT22;38507;53.132;6.394;2023-11-19T08:24:56;11.30;99.90
52209;DHT22;38507;53.132;6.394;2023-11-19T08:27:22;11.40;99.90
52209;DHT22;38507;53.132;6.394;2023-11-19T08:29:55;11.40;99.90
52209;DHT22;38507;53.132;6.394;2023-11-19T08:32:27;11.30;99.90
52209;DHT22;38507;53.132;6.394;2023-11-19T08:34:53;11.30;99.90
52209;DHT22;38507;53.132;6.394;2023-11-19T08:37:19;11.40;99.90
52209;DHT22;38507;53.132;6.394;2023-11-19T08:39:50;11.30;99.90
52209;DHT22;38507;53.132;6.394;2023-11-19T08:42:16;11.20;99.90
52209;DHT22;38507;53.132;6.394;2023-11-19T08:44:51;11.20;99.90
52209;DHT22;38507;53.132;6.394;2023-11-19T08:47:20;11.30;99.90
52209;DHT22;38507;53.132;6.394;2023-11-19T08:49:45;11.20;99.90
52209;DHT22;38507;53.132;6.394;2023-11-19T08:52:11;11.20;99.90
52209;DHT22;38507;53.132;6.394;2023-11-19T08:54:37;11.20;99.90
52209;DHT22;38507;53.132;6.394;2023-11-19T08:57:03;11.60;99.90
52209;DHT22;38507;53.132;6.394;2023-11-19T08:59:30;11.20;99.90
52209;DHT22;38507;53.132;6.394;2023-11-19T09:01:55;11.20;99.90
52209;DHT22;38507;53.132;6.394;2023-11-19T09:04:21;11.30;99.90
52209;DHT22;38507;53.132;6.394;2023-11-19T09:06:48;11.20;99.90
52209;DHT22;38507;53.132;6.394;2023-11-19T09:09:14;11.40;99.90
52209;DHT22;38507;53.132;6.394;2023-11-19T09:11:40;11.50;99.90
52209;DHT22;38507;53.132;6.394;2023-11-19T09:14:06;11.60;99.90
52209;DHT22;38507;53.132;6.394;2023-11-19T09:16:32;11.80;99.90
52209;DHT22;38507;53.132;6.394;2023-11-19T09:18:58;11.80;99.90
52209;DHT22;38507;53.132;6.394;2023-11-19T09:21:25;11.90;99.90
52209;DHT22;38507;53.132;6.394;2023-11-19T09:23:51;12.00;99.90
52209;DHT22;38507;53.132;6.394;2023-11-19T09:26:16;12.10;99.90
52209;DHT22;38507;53.132;6.394;2023-11-19T09:28:42;12.00;99.90
52209;DHT22;38507;53.132;6.394;2023-11-19T09:31:17;12.00;99.90
52209;DHT22;38507;53.132;6.394;2023-11-19T09:33:43;12.00;99.90
52209;DHT22;38507;53.132;6.394;2023-11-19T09:36:10;12.10;99.90
52209;DHT22;38507;53.132;6.394;2023-11-19T09:38:39;12.00;99.90
52209;DHT22;38507;53.132;6.394;2023-11-19T09:41:05;12.00;99.90
52209;DHT22;38507;53.132;6.394;2023-11-19T09:43:35;12.00;99.90
52209;DHT22;38507;53.132;6.394;2023-11-19T09:46:10;12.00;99.90
52209;DHT22;38507;53.132;6.394;2023-11-19T09:48:39;12.10;99.90
52209;DHT22;38507;53.132;6.394;2023-11-19T09:51:09;12.20;99.90
52209;DHT22;38507;53.132;6.394;2023-11-19T09:53:36;12.00;99.90
52209;DHT22;38507;53.132;6.394;2023-11-19T09:56:02;12.00;99.90
52209;DHT22;38507;53.132;6.394;2023-11-19T09:58:29;12.00;99.90
52209;DHT22;38507;53.132;6.394;2023-11-19T10:00:57;12.20;99.90
52209;DHT22;38507;53.132;6.394;2023-11-19T10:03:26;12.00;99.90
52209;DHT22;38507;53.132;6.394;2023-11-19T10:05:54;12.00;99.90
52209;DHT22;38507;53.132;6.394;2023-11-19T10:08:20;12.00;99.90
52209;DHT22;38507;53.132;6.394;2023-11-19T10:10:46;11.90;99.90
52209;DHT22;38507;53.132;6.394;2023-11-19T10:13:12;12.00;99.90
52209;DHT22;38507;53.132;6.394;2023-11-19T10:15:40;11.90;99.90
52209;DHT22;38507;53.132;6.394;2023-11-19T10:18:07;12.10;99.90
52209;DHT22;38507;53.132;6.394;2023-11-19T10:20:36;12.00;99.90
52209;DHT22;38507;53.132;6.394;2023-11-19T10:23:02;11.80;99.90
52209;DHT22;38507;53.132;6.394;2023-11-19T10:25:29;11.80;99.90
52209;DHT22;38507;53.132;6.394;2023-11-19T10:27:56;11.80;99.90
52209;DHT22;38507;53.132;6.394;2023-11-19T10:30:26;11.80;99.90
52209;DHT22;38507;53.132;6.394;2023-11-19T10:33:12;11.80;99.90
52209;DHT22;38507;53.132;6.394;2023-11-19T10:35:56;11.80;99.90
52209;DHT22;38507;53.132;6.394;2023-11-19T10:38:22;11.80;99.90
52209;DHT22;38507;53.132;6.394;2023-11-19T10:40:49;12.00;99.90
52209;DHT22;38507;53.132;6.394;2023-11-19T10:43:19;11.80;99.90
52209;DHT22;38507;53.132;6.394;2023-11-19T10:45:45;11.80;99.90
52209;DHT22;38507;53.132;6.394;2023-11-19T10:48:11;11.80;99.90
52209;DHT22;38507;53.132;6.394;2023-11-19T10:50:39;11.90;99.90
52209;DHT22;38507;53.132;6.394;2023-11-19T10:53:07;11.90;99.90
52209;DHT22;38507;53.132;6.394;2023-11-19T10:55:35;12.00;99.90
52209;DHT22;38507;53.132;6.394;2023-11-19T10:58:03;11.90;99.90
52209;DHT22;38507;53.132;6.394;2023-11-19T11:00:44;12.30;99.90
52209;DHT22;38507;53.132;6.394;2023-11-19T11:03:24;12.40;99.90
52209;DHT22;38507;53.132;6.394;2023-11-19T11:05:51;12.00;99.90
52209;DHT22;38507;53.132;6.394;2023-11-19T11:08:18;12.00;99.90
52209;DHT22;38507;53.132;6.394;2023-11-19T11:10:54;12.10;99.90
52209;DHT22;38507;53.132;6.394;2023-11-19T11:13:22;12.10;99.90
52209;DHT22;38507;53.132;6.394;2023-11-19T11:15:50;12.10;99.90
52209;DHT22;38507;53.132;6.394;2023-11-19T11:18:16;12.10;99.90
52209;DHT22;38507;53.132;6.394;2023-11-19T11:20:44;12.10;99.90
52209;DHT22;38507;53.132;6.394;2023-11-19T11:37:37;12.20;99.90
52209;DHT22;38507;53.132;6.394;2023-11-19T11:40:05;12.20;99.90
52209;DHT22;38507;53.132;6.394;2023-11-19T11:42:38;12.20;99.90
52209;DHT22;38507;53.132;6.394;2023-11-19T11:50:16;12.20;99.90
52209;DHT22;38507;53.132;6.394;2023-11-19T11:57:51;12.20;99.90
52209;DHT22;38507;53.132;6.394;2023-11-19T12:00:27;12.40;99.90
52209;DHT22;38507;53.132;6.394;2023-11-19T12:02:58;12.20;99.90
52209;DHT22;38507;53.132;6.394;2023-11-19T12:05:24;12.30;99.90
52209;DHT22;38507;53.132;6.394;2023-11-19T12:08:04;12.90;99.90
52209;DHT22;38507;53.132;6.394;2023-11-19T12:10:48;12.60;99.90
52209;DHT22;38507;53.132;6.394;2023-11-19T12:13:15;12.60;99.90
52209;DHT22;38507;53.132;6.394;2023-11-19T12:18:29;12.70;99.90
52209;DHT22;38507;53.132;6.394;2023-11-19T12:20:56;12.90;99.90
52209;DHT22;38507;53.132;6.394;2023-11-19T12:23:25;12.60;99.90
52209;DHT22;38507;53.132;6.394;2023-11-19T12:25:51;12.70;99.90
52209;DHT22;38507;53.132;6.394;2023-11-19T12:28:17;13.30;99.90
52209;DHT22;38507;53.132;6.394;2023-11-19T12:30:43;12.90;99.90
52209;DHT22;38507;53.132;6.394;2023-11-19T12:33:12;13.10;99.90
52209;DHT22;38507;53.132;6.394;2023-11-19T12:35:45;13.20;99.90
52209;DHT22;38507;53.132;6.394;2023-11-19T12:38:24;13.20;99.90
52209;DHT22;38507;53.132;6.394;2023-11-19T12:41:09;13.20;99.90
52209;DHT22;38507;53.132;6.394;2023-11-19T12:43:37;13.20;99.90
52209;DHT22;38507;53.132;6.394;2023-11-19T12:46:16;13.20;99.90
52209;DHT22;38507;53.132;6.394;2023-11-19T12:48:42;13.20;99.90
52209;DHT22;38507;53.132;6.394;2023-11-19T12:51:08;13.30;99.90
52209;DHT22;38507;53.132;6.394;2023-11-19T12:53:50;13.80;99.90
52209;DHT22;38507;53.132;6.394;2023-11-19T12:56:16;13.50;99.90
52209;DHT22;38507;53.132;6.394;2023-11-19T12:58:42;13.40;99.90
52209;DHT22;38507;53.132;6.394;2023-11-19T13:01:09;13.40;99.90
52209;DHT22;38507;53.132;6.394;2023-11-19T13:03:38;13.30;99.90
52209;DHT22;38507;53.132;6.394;2023-11-19T13:06:08;13.30;99.90
52209;DHT22;38507;53.132;6.394;2023-11-19T13:08:49;13.10;99.90
52209;DHT22;38507;53.132;6.394;2023-11-19T13:11:30;13.00;99.90
52209;DHT22;38507;53.132;6.394;2023-11-19T13:14:03;12.90;99.90
52209;DHT22;38507;53.132;6.394;2023-11-19T13:16:30;12.90;99.90
52209;DHT22;38507;53.132;6.394;2023-11-19T13:18:56;13.00;99.90
52209;DHT22;38507;53.132;6.394;2023-11-19T13:21:23;12.90;99.90
52209;DHT22;38507;53.132;6.394;2023-11-19T13:23:49;13.10;99.90
52209;DHT22;38507;53.132;6.394;2023-11-19T13:26:15;12.70;99.90
52209;DHT22;38507;53.132;6.394;2023-11-19T13:28:41;12.70;99.90
52209;DHT22;38507;53.132;6.394;2023-11-19T13:31:07;12.70;99.90
52209;DHT22;38507;53.132;6.394;2023-11-19T13:33:33;12.70;99.90
52209;DHT22;38507;53.132;6.394;2023-11-19T13:35:59;12.60;99.90
52209;DHT22;38507;53.132;6.394;2023-11-19T13:38:33;12.50;99.90
52209;DHT22;38507;53.132;6.394;2023-11-19T13:41:01;12.50;99.90
52209;DHT22;38507;53.132;6.394;2023-11-19T13:43:27;12.50;99.90
52209;DHT22;38507;53.132;6.394;2023-11-19T13:45:56;12.60;99.90
52209;DHT22;38507;53.132;6.394;2023-11-19T13:48:22;12.40;99.90
52209;DHT22;38507;53.132;6.394;2023-11-19T13:50:48;12.40;99.90
52209;DHT22;38507;53.132;6.394;2023-11-19T13:53:13;12.40;99.90
52209;DHT22;38507;53.132;6.394;2023-11-19T13:55:39;12.40;99.90
52209;DHT22;38507;53.132;6.394;2023-11-19T13:58:04;12.30;99.90
52209;DHT22;38507;53.132;6.394;2023-11-19T14:00:30;12.30;99.90
52209;DHT22;38507;53.132;6.394;2023-11-19T14:02:56;12.30;99.90
52209;DHT22;38507;53.132;6.394;2023-11-19T14:05:21;12.30;99.90
52209;DHT22;38507;53.132;6.394;2023-11-19T14:07:48;12.30;99.90
52209;DHT22;38507;53.132;6.394;2023-11-19T14:10:14;12.30;99.90
52209;DHT22;38507;53.132;6.394;2023-11-19T14:12:41;12.30;99.90
52209;DHT22;38507;53.132;6.394;2023-11-19T14:15:08;12.30;99.90
52209;DHT22;38507;53.132;6.394;2023-11-19T14:17:41;12.20;99.90
52209;DHT22;38507;53.132;6.394;2023-11-19T14:20:07;12.20;99.90
52209;DHT22;38507;53.132;6.394;2023-11-19T14:22:45;12.20;99.90
52209;DHT22;38507;53.132;6.394;2023-11-19T14:25:15;12.20;99.90
52209;DHT22;38507;53.132;6.394;2023-11-19T14:27:41;12.30;99.90
52209;DHT22;38507;53.132;6.394;2023-11-19T14:30:09;12.30;99.90
52209;DHT22;38507;53.132;6.394;2023-11-19T14:32:36;12.20;99.90
52209;DHT22;38507;53.132;6.394;2023-11-19T14:35:03;12.10;99.90
52209;DHT22;38507;53.132;6.394;2023-11-19T14:37:29;12.00;99.90
52209;DHT22;38507;53.132;6.394;2023-11-19T14:39:56;12.00;99.90
52209;DHT22;38507;53.132;6.394;2023-11-19T14:42:23;11.90;99.90
52209;DHT22;38507;53.132;6.394;2023-11-19T14:44:51;11.90;99.90
52209;DHT22;38507;53.132;6.394;2023-11-19T14:47:19;11.90;99.90
52209;DHT22;38507;53.132;6.394;2023-11-19T14:49:45;11.90;99.90
52209;DHT22;38507;53.132;6.394;2023-11-19T14:52:10;11.90;99.90
52209;DHT22;38507;53.132;6.394;2023-11-19T14:54:37;11.80;99.90
52209;DHT22;38507;53.132;6.394;2023-11-19T14:57:04;12.20;99.90
52209;DHT22;38507;53.132;6.394;2023-11-19T14:59:30;11.90;99.90
52209;DHT22;38507;53.132;6.394;2023-11-19T15:01:55;11.90;99.90
52209;DHT22;38507;53.132;6.394;2023-11-19T15:04:21;11.90;99.90
52209;DHT22;38507;53.132;6.394;2023-11-19T15:06:46;11.90;99.90
52209;DHT22;38507;53.132;6.394;2023-11-19T15:09:12;11.90;99.90
52209;DHT22;38507;53.132;6.394;2023-11-19T15:11:45;11.90;99.90
52209;DHT22;38507;53.132;6.394;2023-11-19T15:14:12;11.90;99.90
52209;DHT22;38507;53.132;6.394;2023-11-19T15:16:42;11.90;99.90
52209;DHT22;38507;53.132;6.394;2023-11-19T15:19:08;11.90;99.90
52209;DHT22;38507;53.132;6.394;2023-11-19T15:21:34;11.80;99.90
52209;DHT22;38507;53.132;6.394;2023-11-19T15:24:00;11.80;99.90
52209;DHT22;38507;53.132;6.394;2023-11-19T15:26:26;11.80;99.90
52209;DHT22;38507;53.132;6.394;2023-11-19T15:28:52;12.20;99.90
52209;DHT22;38507;53.132;6.394;2023-11-19T15:31:22;11.80;99.90
52209;DHT22;38507;53.132;6.394;2023-11-19T15:33:47;11.70;99.90
52209;DHT22;38507;53.132;6.394;2023-11-19T15:36:13;11.80;99.90
52209;DHT22;38507;53.132;6.394;2023-11-19T15:38:40;11.70;99.90
52209;DHT22;38507;53.132;6.394;2023-11-19T15:41:06;11.70;99.90
52209;DHT22;38507;53.132;6.394;2023-11-19T15:43:33;11.60;99.90
52209;DHT22;38507;53.132;6.394;2023-11-19T15:45:59;11.60;99.90
52209;DHT22;38507;53.132;6.394;2023-11-19T15:48:25;11.60;99.90
52209;DHT22;38507;53.132;6.394;2023-11-19T15:50:51;11.60;99.90
52209;DHT22;38507;53.132;6.394;2023-11-19T15:53:17;11.50;99.90
52209;DHT22;38507;53.132;6.394;2023-11-19T15:55:44;11.50;99.90
52209;DHT22;38507;53.132;6.394;2023-11-19T15:58:10;11.50;99.90